createdAt,value
2018-02-06T00:00:01.273Z,-2.60
2018-02-06T00:02:32.434Z,-2.30
2018-02-06T00:05:00.545Z,-2.10
2018-02-06T00:07:28.045Z,-2.00
2018-02-06T00:09:55.528Z,-2.00
2018-02-06T00:12:22.980Z,-2.00
2018-02-06T00:14:50.478Z,-2.10
2018-02-06T00:17:29.639Z,-2.10
2018-02-06T00:19:57.101Z,-2.20
2018-02-06T00:22:36.445Z,-2.20
2018-02-06T00:25:04.685Z,-2.20
2018-02-06T00:27:32.910Z,-2.20
2018-02-06T00:30:01.152Z,-2.30
2018-02-06T00:32:28.618Z,-2.30
2018-02-06T00:34:56.089Z,-2.20
2018-02-06T00:37:23.565Z,-2.30
2018-02-06T00:39:51.970Z,-2.40
2018-02-06T00:42:19.711Z,-2.50
2018-02-06T00:44:47.180Z,-2.50
2018-02-06T00:47:17.970Z,-2.40
2018-02-06T00:49:45.434Z,-2.20
2018-02-06T00:52:12.888Z,-2.10
2018-02-06T00:54:40.388Z,-2.00
2018-02-06T00:57:08.100Z,-2.00
2018-02-06T00:59:36.220Z,-1.90
2018-02-06T01:02:03.932Z,-1.90
2018-02-06T01:04:31.474Z,-1.90
2018-02-06T01:06:58.922Z,-2.00
2018-02-06T01:09:26.405Z,-2.00
2018-02-06T01:11:53.864Z,-2.00
2018-02-06T01:14:21.345Z,-2.10
2018-02-06T01:16:50.499Z,-2.30
2018-02-06T01:19:18.753Z,-2.40
2018-02-06T01:21:46.209Z,-2.50
2018-02-06T01:24:14.608Z,-2.40
2018-02-06T01:26:42.091Z,-2.30
2018-02-06T01:29:09.636Z,-2.30
2018-02-06T01:31:37.151Z,-2.50
2018-02-06T01:34:05.133Z,-2.60
2018-02-06T01:36:32.621Z,-2.60
2018-02-06T01:39:00.081Z,-2.60
2018-02-06T01:41:28.466Z,-2.40
2018-02-06T01:43:55.920Z,-2.40
2018-02-06T01:46:23.368Z,-2.40
2018-02-06T01:48:50.836Z,-2.40
2018-02-06T01:51:18.292Z,-2.40
2018-02-06T01:53:45.772Z,-2.40
2018-02-06T01:56:13.213Z,-2.40
2018-02-06T01:58:40.668Z,-2.40
2018-02-06T02:01:08.162Z,-2.40
2018-02-06T02:03:36.133Z,-2.50
2018-02-06T02:06:03.647Z,-2.50
2018-02-06T02:08:31.104Z,-2.40
2018-02-06T02:10:58.573Z,-2.50
2018-02-06T02:13:26.323Z,-2.50
2018-02-06T02:15:53.784Z,-2.60
2018-02-06T02:18:24.853Z,-2.80
2018-02-06T02:20:52.321Z,-2.80
2018-02-06T02:23:21.040Z,-2.80
2018-02-06T02:25:48.554Z,-2.80
2018-02-06T02:28:16.035Z,-2.80
2018-02-06T02:30:43.542Z,-2.80
2018-02-06T02:33:11.061Z,-2.80
2018-02-06T02:35:38.537Z,-2.90
2018-02-06T02:38:06.075Z,-2.80
2018-02-06T02:40:34.486Z,-2.80
2018-02-06T04:38:54.575Z,-3.00
2018-02-06T04:41:22.075Z,-3.00
2018-02-06T04:43:52.513Z,-3.00
2018-02-06T04:46:19.989Z,-3.00
2018-02-06T04:48:48.375Z,-3.00
2018-02-06T04:51:15.820Z,-3.00
2018-02-06T04:53:43.411Z,-3.00
2018-02-06T04:56:12.791Z,-3.00
2018-02-06T04:58:40.240Z,-3.00
2018-02-06T05:01:07.710Z,-3.00
2018-02-06T05:03:35.203Z,-3.00
2018-02-06T05:06:05.901Z,-3.00
2018-02-06T05:08:33.349Z,-3.00
2018-02-06T05:11:00.844Z,-3.10
2018-02-06T05:13:28.299Z,-3.20
2018-02-06T05:15:57.488Z,-3.20
2018-02-06T05:18:24.996Z,-3.20
2018-02-06T05:20:52.436Z,-3.20
2018-02-06T05:23:19.976Z,-3.20
2018-02-06T05:25:48.197Z,-3.20
2018-02-06T05:28:15.688Z,-3.20
2018-02-06T05:30:43.196Z,-3.20
2018-02-06T05:33:10.646Z,-3.20
2018-02-06T05:35:38.097Z,-3.10
2018-02-06T05:38:05.577Z,-3.10
2018-02-06T05:40:33.129Z,-3.10
2018-02-06T05:43:00.641Z,-3.10
2018-02-06T05:45:28.096Z,-3.10
2018-02-06T05:47:55.592Z,-3.10
2018-02-06T05:50:23.104Z,-3.10
2018-02-06T05:52:50.569Z,-3.10
2018-02-06T05:55:18.898Z,-3.10
2018-02-06T05:57:46.368Z,-3.00
2018-02-06T06:00:13.879Z,-3.00
2018-02-06T06:02:41.324Z,-3.10
2018-02-06T06:05:08.805Z,-3.20
2018-02-06T06:07:45.015Z,-3.40
2018-02-06T06:10:13.255Z,-3.50
2018-02-06T06:12:40.737Z,-3.50
2018-02-06T06:15:08.836Z,-3.60
2018-02-06T06:17:37.081Z,-3.20
2018-02-06T06:20:04.603Z,-3.20
2018-02-06T06:22:32.049Z,-3.20
2018-02-06T06:24:59.705Z,-3.10
2018-02-06T06:27:28.841Z,-2.90
2018-02-06T06:29:56.316Z,-3.00
2018-02-06T06:32:23.789Z,-2.90
2018-02-06T06:34:51.302Z,-2.80
2018-02-06T06:37:18.749Z,-2.80
2018-02-06T06:39:47.932Z,-2.80
2018-02-06T06:42:15.384Z,-2.80
2018-02-06T06:44:42.865Z,-2.70
2018-02-06T06:47:10.360Z,-2.80
2018-02-06T06:49:37.991Z,-2.90
2018-02-06T06:52:06.707Z,-3.00
2018-02-06T06:54:34.197Z,-3.20
2018-02-06T06:57:01.701Z,-3.30
2018-02-06T06:59:29.254Z,-3.30
2018-02-06T07:01:56.764Z,-3.30
2018-02-06T07:04:24.240Z,-3.20
2018-02-06T07:06:51.732Z,-3.10
2018-02-06T07:09:19.223Z,-3.10
2018-02-06T07:11:46.681Z,-3.00
2018-02-06T07:14:15.688Z,-3.00
2018-02-06T07:16:43.135Z,-3.00
2018-02-06T07:19:10.604Z,-2.90
2018-02-06T07:21:38.126Z,-2.90
2018-02-06T07:24:05.604Z,-2.80
2018-02-06T07:26:33.079Z,-2.80
2018-02-06T07:29:01.366Z,-2.70
2018-02-06T07:31:28.838Z,-2.70
2018-02-06T07:33:56.309Z,-2.60
2018-02-06T07:36:23.785Z,-2.50
2018-02-06T07:38:51.275Z,-2.40
2018-02-06T07:41:18.756Z,-2.40
2018-02-06T07:43:48.056Z,-2.40
2018-02-06T07:46:16.302Z,-2.40
2018-02-06T07:48:45.298Z,-2.30
2018-02-06T07:51:13.049Z,-2.30
2018-02-06T07:53:40.521Z,-2.20
2018-02-06T07:56:08.014Z,-2.00
2018-02-06T07:58:35.464Z,-1.80
2018-02-06T08:01:02.943Z,-1.70
2018-02-06T08:03:30.584Z,-1.40
2018-02-06T08:05:58.088Z,-1.20
2018-02-06T08:08:26.828Z,-0.80
2018-02-06T08:10:54.405Z,-0.80
2018-02-06T08:13:21.854Z,-0.50
2018-02-06T08:15:49.320Z,-0.40
2018-02-06T08:18:16.776Z,-0.30
2018-02-06T08:20:44.292Z,-0.20
2018-02-06T08:23:11.754Z,-0.30
2018-02-06T08:25:39.959Z,-0.20
2018-02-06T08:28:07.476Z,-0.30
2018-02-06T08:30:34.936Z,-0.30
2018-02-06T08:33:03.177Z,-0.40
2018-02-06T08:35:30.641Z,-0.40
2018-02-06T08:37:59.066Z,-0.40
2018-02-06T08:40:26.660Z,-0.30
2018-02-06T08:42:54.768Z,-0.50
2018-02-06T08:45:22.300Z,-0.70
2018-02-06T08:47:49.788Z,-0.80
2018-02-06T08:50:17.261Z,-0.80
2018-02-06T08:52:44.725Z,-0.70
2018-02-06T08:55:17.070Z,-0.60
2018-02-06T08:57:45.051Z,-0.50
2018-02-06T09:00:13.483Z,-0.40
2018-02-06T09:02:40.980Z,-0.40
2018-02-06T09:05:08.445Z,-0.30
2018-02-06T09:07:35.996Z,-0.30
2018-02-06T09:10:03.537Z,-0.20
2018-02-06T09:12:31.037Z,-0.10
2018-02-06T09:14:59.341Z,0.10
2018-02-06T09:17:26.989Z,0.10
2018-02-06T09:19:54.519Z,0.20
2018-02-06T09:22:21.959Z,0.40
2018-02-06T09:24:49.429Z,0.50
2018-02-06T09:27:16.880Z,0.60
2018-02-06T09:29:44.517Z,0.70
2018-02-06T09:32:11.975Z,0.80
2018-02-06T09:34:39.754Z,0.90
2018-02-06T09:37:07.238Z,0.90
2018-02-06T09:39:35.607Z,1.00
2018-02-06T09:42:06.750Z,1.00
2018-02-06T09:44:34.234Z,1.00
2018-02-06T09:47:02.256Z,1.10
2018-02-06T09:49:30.638Z,1.20
2018-02-06T09:51:58.091Z,1.30
2018-02-06T09:54:26.177Z,1.20
2018-02-06T09:56:53.700Z,1.10
2018-02-06T09:59:21.410Z,1.10
2018-02-06T10:01:50.352Z,1.10
2018-02-06T10:04:17.800Z,1.10
2018-02-06T10:06:45.280Z,1.10
2018-02-06T10:09:12.724Z,1.00
2018-02-06T10:11:43.588Z,1.00
2018-02-06T10:14:11.076Z,0.90
2018-02-06T10:16:39.176Z,0.80
2018-02-06T10:19:06.629Z,0.90
2018-02-06T10:21:34.064Z,1.00
2018-02-06T10:24:01.592Z,1.00
2018-02-06T10:26:36.338Z,1.00
2018-02-06T10:29:04.191Z,1.00
2018-02-06T10:31:31.675Z,0.90
2018-02-06T10:33:59.924Z,0.90
2018-02-06T10:36:27.381Z,0.80
2018-02-06T10:38:54.849Z,0.90
2018-02-06T10:41:26.909Z,1.00
2018-02-06T10:43:54.360Z,1.00
2018-02-06T10:46:22.038Z,1.10
2018-02-06T10:48:49.534Z,1.20
2018-02-06T10:51:17.038Z,1.30
2018-02-06T10:53:44.526Z,1.40
2018-02-06T10:56:13.685Z,1.60
2018-02-06T10:58:41.140Z,1.60
2018-02-06T11:01:08.611Z,1.70
2018-02-06T11:03:36.064Z,1.70
2018-02-06T11:06:03.532Z,1.80
2018-02-06T11:08:31.010Z,1.90
2018-02-06T11:10:58.446Z,2.10
2018-02-06T11:13:26.615Z,2.30
2018-02-06T11:15:54.092Z,2.40
2018-02-06T11:18:21.582Z,2.40
2018-02-06T11:20:49.072Z,2.50
2018-02-06T11:23:16.577Z,2.50
2018-02-06T11:25:44.816Z,2.60
2018-02-06T11:28:19.231Z,2.60
2018-02-06T11:30:46.721Z,2.60
2018-02-06T11:33:14.197Z,2.60
2018-02-06T11:35:42.285Z,2.70
2018-02-06T11:38:09.744Z,2.70
2018-02-06T11:40:37.247Z,2.70
2018-02-06T11:43:04.692Z,2.70
2018-02-06T11:45:32.151Z,2.70
2018-02-06T11:48:00.276Z,2.70
2018-02-06T11:50:27.781Z,2.80
2018-02-06T11:52:55.246Z,2.90
2018-02-06T11:55:22.709Z,3.00
2018-02-06T11:57:54.553Z,3.10
2018-02-06T12:00:22.792Z,3.20
2018-02-06T12:02:50.236Z,3.10
2018-02-06T12:05:17.716Z,3.20
2018-02-06T12:07:45.201Z,3.20
2018-02-06T12:10:12.676Z,3.30
2018-02-06T12:12:40.904Z,3.40
2018-02-06T12:15:09.292Z,3.40
2018-02-06T12:17:36.732Z,3.60
2018-02-06T12:20:04.232Z,3.80
2018-02-06T12:22:31.840Z,4.00
2018-02-06T12:24:59.400Z,4.10
2018-02-06T12:27:26.908Z,4.10
2018-02-06T12:29:54.417Z,4.10
2018-02-06T12:32:22.851Z,4.00
2018-02-06T12:34:50.308Z,4.00
2018-02-06T12:37:17.758Z,4.00
2018-02-06T12:39:45.227Z,3.90
2018-02-06T12:42:12.704Z,3.90
2018-02-06T12:44:43.419Z,3.80
2018-02-06T12:47:10.876Z,3.80
2018-02-06T12:49:38.358Z,3.70
2018-02-06T12:52:05.828Z,3.70
2018-02-06T12:54:33.364Z,3.70
2018-02-06T12:57:01.344Z,3.60
2018-02-06T12:59:36.554Z,3.60
2018-02-06T13:02:03.912Z,3.60
2018-02-06T13:04:32.052Z,3.70
2018-02-06T13:06:59.508Z,3.70
2018-02-06T13:09:27.011Z,3.70
2018-02-06T13:11:55.314Z,3.80
2018-02-06T13:14:22.768Z,3.80
2018-02-06T13:16:50.241Z,3.90
2018-02-06T13:19:18.474Z,3.90
2018-02-06T13:21:46.040Z,3.90
2018-02-06T13:24:13.516Z,3.90
2018-02-06T13:26:41.006Z,4.00
2018-02-06T13:29:08.464Z,4.00
2018-02-06T13:31:35.942Z,4.10
2018-02-06T13:34:03.428Z,4.10
2018-02-06T13:36:30.882Z,4.10
2018-02-06T13:39:00.046Z,4.20
2018-02-06T13:41:27.804Z,4.20
2018-02-06T13:43:55.836Z,4.20
2018-02-06T13:46:23.281Z,4.20
2018-02-06T13:48:50.752Z,4.10
2018-02-06T13:51:18.249Z,4.20
2018-02-06T13:53:45.723Z,4.20
2018-02-06T13:56:13.687Z,4.20
2018-02-06T13:58:41.174Z,4.30
2018-02-06T14:01:08.689Z,4.40
2018-02-06T14:03:36.149Z,4.40
2018-02-06T14:06:03.591Z,4.40
2018-02-06T14:08:31.073Z,4.50
2018-02-06T14:10:58.540Z,4.40
2018-02-06T14:13:26.315Z,4.20
2018-02-06T14:15:53.768Z,4.10
2018-02-06T14:18:22.356Z,4.10
2018-02-06T14:20:49.874Z,4.10
2018-02-06T14:23:17.516Z,4.10
2018-02-06T14:25:45.094Z,4.10
2018-02-06T14:28:13.089Z,4.10
2018-02-06T14:30:41.284Z,4.10
2018-02-06T14:33:08.769Z,4.10
2018-02-06T14:35:36.244Z,4.10
2018-02-06T14:38:03.723Z,4.10
2018-02-06T14:40:31.237Z,4.10
2018-02-06T14:42:58.748Z,4.10
2018-02-06T14:45:30.625Z,4.10
2018-02-06T14:47:58.072Z,4.10
2018-02-06T14:50:25.536Z,4.10
2018-02-06T14:52:53.024Z,4.10
2018-02-06T14:55:20.485Z,4.10
2018-02-06T14:57:47.939Z,4.00
2018-02-06T15:00:15.408Z,4.00
2018-02-06T15:02:42.969Z,3.90
2018-02-06T15:05:10.545Z,3.80
2018-02-06T15:07:38.931Z,3.80
2018-02-06T15:10:06.449Z,3.80
2018-02-06T15:12:33.916Z,3.70
2018-02-06T15:15:01.540Z,3.70
2018-02-06T15:17:29.760Z,3.60
2018-02-06T15:19:57.948Z,3.60
2018-02-06T15:22:25.398Z,3.50
2018-02-06T15:24:52.893Z,3.50
2018-02-06T15:27:20.344Z,3.50
2018-02-06T15:29:47.795Z,3.50
2018-02-06T15:32:19.037Z,3.40
2018-02-06T15:34:46.492Z,3.30
2018-02-06T15:37:13.966Z,3.30
2018-02-06T15:39:42.913Z,3.20
2018-02-06T15:42:10.467Z,3.20
2018-02-06T15:44:37.927Z,3.20
2018-02-06T15:47:05.385Z,3.20
2018-02-06T15:49:37.380Z,3.20
2018-02-06T15:52:04.852Z,3.10
2018-02-06T15:54:32.311Z,3.10
2018-02-06T15:56:59.992Z,3.20
2018-02-06T15:59:27.456Z,3.20
2018-02-06T16:01:58.842Z,3.20
2018-02-06T16:04:27.129Z,3.20
2018-02-06T16:06:54.795Z,3.20
2018-02-06T16:09:22.241Z,3.20
2018-02-06T16:11:49.710Z,3.20
2018-02-06T16:14:17.160Z,3.20
2018-02-06T16:16:44.637Z,3.20
2018-02-06T16:19:12.117Z,3.20
2018-02-06T16:21:39.577Z,3.10
2018-02-06T16:24:07.055Z,3.00
2018-02-06T16:26:36.036Z,2.80
2018-02-06T16:29:03.488Z,2.80
2018-02-06T16:31:30.934Z,2.80
2018-02-06T16:34:02.456Z,2.80
2018-02-06T16:36:29.999Z,2.80
2018-02-06T16:38:57.567Z,2.70
2018-02-06T16:41:25.045Z,2.70
2018-02-06T16:43:52.517Z,2.70
2018-02-06T16:46:19.984Z,2.70
2018-02-06T16:48:51.133Z,2.70
2018-02-06T16:51:18.648Z,2.60
2018-02-06T16:53:46.092Z,2.60
2018-02-06T16:56:14.995Z,2.40
2018-02-06T16:58:42.464Z,2.40
2018-02-06T17:01:11.545Z,2.40
2018-02-06T17:03:42.078Z,2.40
2018-02-06T17:06:09.544Z,2.40
2018-02-06T17:08:37.817Z,2.30
2018-02-06T17:11:05.264Z,2.30
2018-02-06T17:13:34.272Z,2.20
2018-02-06T17:16:01.757Z,2.20
2018-02-06T17:18:29.287Z,2.10
2018-02-06T17:20:56.776Z,2.10
2018-02-06T17:23:24.244Z,2.00
2018-02-06T17:25:51.794Z,1.90
2018-02-06T17:28:19.245Z,1.80
2018-02-06T17:30:48.400Z,1.70
2018-02-06T17:33:16.084Z,1.70
2018-02-06T17:35:43.560Z,1.60
2018-02-06T17:38:11.040Z,1.50
2018-02-06T17:40:38.468Z,1.30
2018-02-06T17:43:06.896Z,1.30
2018-02-06T17:45:34.337Z,1.30
2018-02-06T17:48:01.808Z,1.20
2018-02-06T17:50:29.270Z,1.20
2018-02-06T17:52:56.744Z,1.10
2018-02-06T17:55:24.205Z,1.10
2018-02-06T17:57:51.693Z,1.10
2018-02-06T18:00:20.893Z,1.10
2018-02-06T18:02:48.377Z,1.00
2018-02-06T18:05:16.184Z,1.00
2018-02-06T18:07:43.634Z,0.90
2018-02-06T18:10:11.129Z,0.80
2018-02-06T18:15:14.073Z,0.70
2018-02-06T18:17:41.538Z,0.60
2018-02-06T18:20:09.064Z,0.60
2018-02-06T18:22:36.550Z,0.60
2018-02-06T18:25:05.539Z,0.50
2018-02-06T18:27:33.033Z,0.50
2018-02-06T18:30:00.485Z,0.40
2018-02-06T18:32:27.935Z,0.40
2018-02-06T18:34:59.216Z,0.30
2018-02-06T18:37:27.416Z,0.20
2018-02-06T18:39:54.904Z,0.20
2018-02-06T18:42:22.376Z,0.30
2018-02-06T18:44:49.976Z,0.20
2018-02-06T18:47:17.409Z,0.20
2018-02-06T18:49:45.680Z,0.10
2018-02-06T18:52:15.761Z,0.10
2018-02-06T18:54:44.425Z,0.10
2018-02-06T18:57:12.195Z,0.10
2018-02-06T18:59:40.152Z,0.10
2018-02-06T19:02:08.104Z,0.00
2018-02-06T19:04:36.404Z,0.00
2018-02-06T19:07:04.374Z,0.00
2018-02-06T19:09:32.240Z,-0.10
2018-02-06T19:12:00.274Z,-0.20
2018-02-06T19:14:28.388Z,-0.30
2018-02-06T19:16:56.453Z,-0.30
2018-02-06T19:19:24.127Z,-0.30
2018-02-06T19:21:52.337Z,-0.30
2018-02-06T19:24:20.987Z,-0.40
2018-02-06T19:26:49.002Z,-0.40
2018-02-06T19:29:16.760Z,-0.40
2018-02-06T19:31:45.494Z,-0.40
2018-02-06T19:34:13.547Z,-0.40
2018-02-06T19:36:41.648Z,-0.50
2018-02-06T19:39:09.709Z,-0.40
2018-02-06T19:41:38.056Z,-0.50
2018-02-06T19:44:05.813Z,-0.50
2018-02-06T19:46:34.847Z,-0.60
2018-02-06T19:49:02.580Z,-0.60
2018-02-06T19:51:34.682Z,-0.60
2018-02-06T19:54:02.551Z,-0.60
2018-02-06T19:56:30.288Z,-0.60
2018-02-06T19:58:58.580Z,-0.60
2018-02-06T20:01:27.535Z,-0.60
2018-02-06T20:03:55.397Z,-0.60
2018-02-06T20:06:23.408Z,-0.50
2018-02-06T20:08:51.800Z,-0.40
2018-02-06T20:11:20.109Z,-0.40
2018-02-06T20:13:48.204Z,-0.50
2018-02-06T20:16:16.929Z,-0.70
2018-02-06T20:18:45.005Z,-0.80
2018-02-06T20:21:16.444Z,-0.80
2018-02-06T20:23:45.478Z,-0.80
2018-02-06T20:26:13.678Z,-0.80
2018-02-06T20:28:42.083Z,-0.80
2018-02-06T20:31:09.750Z,-0.80
2018-02-06T20:33:37.433Z,-0.90
2018-02-06T20:36:05.065Z,-1.10
2018-02-06T20:38:32.665Z,-1.20
2018-02-06T20:41:01.187Z,-1.20
2018-02-06T20:43:28.845Z,-1.20
2018-02-06T20:45:56.439Z,-1.10
2018-02-06T20:48:24.060Z,-1.00
2018-02-06T20:50:51.660Z,-1.10
2018-02-06T20:53:20.675Z,-1.20
2018-02-06T20:55:48.323Z,-1.20
2018-02-06T20:58:17.608Z,-1.30
2018-02-06T21:00:46.339Z,-1.20
2018-02-06T21:03:13.946Z,-1.20
2018-02-06T21:05:41.567Z,-1.30
2018-02-06T21:08:10.369Z,-1.30
2018-02-06T21:10:37.983Z,-1.30
2018-02-06T21:13:05.573Z,-1.40
2018-02-06T21:15:34.043Z,-1.40
2018-02-06T21:18:01.458Z,-1.40
2018-02-06T21:20:29.752Z,-1.50
2018-02-06T21:22:57.192Z,-1.50
2018-02-06T21:25:24.918Z,-1.50
2018-02-06T21:27:53.341Z,-1.60
2018-02-06T21:30:20.820Z,-1.50
2018-02-06T21:32:48.328Z,-1.50
2018-02-06T21:35:15.793Z,-1.40
2018-02-06T21:37:43.271Z,-1.30
2018-02-06T21:40:12.445Z,-1.30
2018-02-06T21:42:39.950Z,-1.30
2018-02-06T21:45:07.424Z,-1.30
2018-02-06T21:47:34.891Z,-1.50
2018-02-06T21:50:02.399Z,-1.50
2018-02-06T21:52:33.993Z,-1.50
2018-02-06T21:55:01.844Z,-1.40
2018-02-06T21:57:29.356Z,-1.50
2018-02-06T21:59:57.556Z,-1.60
2018-02-06T22:02:25.600Z,-1.60
2018-02-06T22:04:53.073Z,-1.60
2018-02-06T22:07:21.257Z,-1.80
2018-02-06T22:09:48.823Z,-1.80
2018-02-06T22:12:16.338Z,-2.00
2018-02-06T22:14:44.550Z,-2.00
2018-02-06T22:17:12.020Z,-2.10
2018-02-06T22:19:40.305Z,-2.10
2018-02-06T22:22:07.761Z,-2.10
2018-02-06T22:24:35.230Z,-2.10
2018-02-06T22:27:02.680Z,-2.00
2018-02-06T22:29:30.187Z,-2.00
2018-02-06T22:31:57.668Z,-2.00
2018-02-06T22:34:25.140Z,-1.90
2018-02-06T22:36:52.624Z,-2.00
2018-02-06T22:39:20.088Z,-2.00
2018-02-06T22:41:47.564Z,-2.00
2018-02-06T22:44:15.008Z,-2.00
2018-02-06T22:46:43.445Z,-2.00
2018-02-06T22:49:10.907Z,-1.90
2018-02-06T22:51:38.358Z,-1.90
2018-02-06T22:54:09.338Z,-2.00
2018-02-06T22:56:36.818Z,-2.10
2018-02-06T22:59:04.264Z,-2.10
2018-02-06T23:01:32.061Z,-2.10
2018-02-06T23:03:59.672Z,-2.10
2018-02-06T23:06:27.460Z,-2.10
2018-02-06T23:08:58.691Z,-2.10
2018-02-06T23:11:26.254Z,-2.10
2018-02-06T23:13:53.722Z,-2.10
2018-02-06T23:16:21.371Z,-2.10
2018-02-06T23:18:48.844Z,-2.10
2018-02-06T23:21:16.972Z,-2.00
2018-02-06T23:23:44.464Z,-1.70
2018-02-06T23:26:11.920Z,-1.70
2018-02-06T23:28:39.449Z,-1.60
2018-02-06T23:31:06.922Z,-1.60
2018-02-06T23:33:34.396Z,-1.60
2018-02-06T23:36:01.879Z,-1.60
2018-02-06T23:38:30.284Z,-1.70
2018-02-06T23:40:57.736Z,-1.80
2018-02-06T23:43:25.214Z,-2.00
2018-02-06T23:45:52.664Z,-2.10
2018-02-06T23:48:20.149Z,-2.30
2018-02-06T23:50:47.638Z,-2.30
2018-02-06T23:53:15.085Z,-2.30
2018-02-06T23:55:42.549Z,-2.40
2018-02-06T23:58:10.028Z,-2.50
